createdAt,value
2022-08-10T00:01:52.799Z,29.00
2022-08-10T00:04:22.708Z,29.00
2022-08-10T00:06:52.667Z,29.00
2022-08-10T00:09:21.540Z,28.90
2022-08-10T00:11:49.770Z,28.80
2022-08-10T00:14:18.143Z,28.80
2022-08-10T00:16:47.902Z,28.80
2022-08-10T00:19:16.612Z,28.80
2022-08-10T00:21:47.112Z,28.80
2022-08-10T00:24:15.781Z,28.80
2022-08-10T00:27:52.635Z,28.80
2022-08-10T00:29:32.815Z,28.80
2022-08-10T00:32:02.893Z,28.80
2022-08-10T00:34:32.933Z,28.70
2022-08-10T00:37:01.712Z,28.70
2022-08-10T00:39:30.628Z,28.60
2022-08-10T00:42:08.165Z,28.60
2022-08-10T00:44:38.366Z,28.60
2022-08-10T00:47:20.701Z,28.60
2022-08-10T00:49:58.023Z,28.60
2022-08-10T00:52:28.153Z,28.50
2022-08-10T00:54:58.513Z,28.50
2022-08-10T00:57:28.951Z,28.50
2022-08-10T01:00:00.129Z,28.50
2022-08-10T01:02:32.991Z,28.50
2022-08-10T01:05:05.405Z,28.50
2022-08-10T01:07:49.583Z,28.50
2022-08-10T01:10:28.973Z,28.50
2022-08-10T01:13:04.674Z,28.50
2022-08-10T01:15:39.976Z,28.50
2022-08-10T01:18:15.273Z,28.40
2022-08-10T01:21:00.513Z,28.40
2022-08-10T01:23:54.302Z,28.40
2022-08-10T01:26:53.533Z,28.40
2022-08-10T01:29:58.423Z,28.40
2022-08-10T01:32:38.163Z,28.40
2022-08-10T01:35:13.466Z,28.30
2022-08-10T01:37:52.014Z,28.30
2022-08-10T01:40:26.073Z,28.30
2022-08-10T01:43:07.838Z,28.30
2022-08-10T01:45:45.137Z,28.30
2022-08-10T01:48:31.505Z,28.30
2022-08-10T01:51:14.118Z,28.30
2022-08-10T01:53:52.264Z,28.30
2022-08-10T01:56:23.903Z,28.30
2022-08-10T01:58:57.935Z,28.30
2022-08-10T02:01:31.164Z,28.20
2022-08-10T02:04:05.936Z,28.20
2022-08-10T02:06:38.973Z,28.30
2022-08-10T02:09:08.796Z,28.20
2022-08-10T02:12:06.346Z,28.20
2022-08-10T02:14:33.267Z,28.20
2022-08-10T02:17:05.724Z,28.20
2022-08-10T02:19:36.094Z,28.10
2022-08-10T02:22:15.417Z,28.20
2022-08-10T02:24:56.622Z,28.10
2022-08-10T02:27:27.712Z,28.10
2022-08-10T02:29:58.433Z,28.10
2022-08-10T02:32:36.597Z,28.10
2022-08-10T02:35:11.337Z,28.10
2022-08-10T02:37:51.983Z,28.10
2022-08-10T02:45:12.826Z,28.10
2022-08-10T02:45:20.715Z,28.10
2022-08-10T02:46:13.934Z,28.00
2022-08-10T02:48:54.713Z,28.00
2022-08-10T02:52:06.233Z,28.00
2022-08-10T02:54:22.002Z,28.00
2022-08-10T02:56:55.868Z,28.00
2022-08-10T02:59:38.620Z,27.90
2022-08-10T03:02:23.358Z,27.90
2022-08-10T03:05:00.904Z,27.80
2022-08-10T03:07:45.189Z,27.80
2022-08-10T03:10:18.283Z,27.80
2022-08-10T03:12:50.779Z,27.80
2022-08-10T03:15:21.443Z,27.80
2022-08-10T03:17:57.077Z,27.70
2022-08-10T03:20:38.492Z,27.70
2022-08-10T03:23:13.234Z,27.70
2022-08-10T03:25:54.332Z,27.70
2022-08-10T03:28:24.903Z,27.70
2022-08-10T03:30:54.273Z,27.60
2022-08-10T03:33:24.842Z,27.60
2022-08-10T03:36:42.054Z,27.60
2022-08-10T03:38:46.498Z,27.60
2022-08-10T03:41:16.894Z,27.50
2022-08-10T03:43:48.318Z,27.50
2022-08-10T03:46:19.828Z,27.50
2022-08-10T03:48:53.101Z,27.50
2022-08-10T03:51:24.554Z,27.50
2022-08-10T03:54:03.518Z,27.50
2022-08-10T03:56:36.628Z,27.50
2022-08-10T03:59:06.062Z,27.50
2022-08-10T04:02:46.986Z,27.50
2022-08-10T04:04:25.050Z,27.50
2022-08-10T04:06:57.080Z,27.40
2022-08-10T04:09:42.658Z,27.40
2022-08-10T04:12:16.014Z,27.40
2022-08-10T04:14:50.965Z,27.40
2022-08-10T04:18:02.875Z,27.40
2022-08-10T04:20:17.296Z,27.40
2022-08-10T04:22:51.324Z,27.30
2022-08-10T04:25:20.284Z,27.30
2022-08-10T04:27:49.093Z,27.30
2022-08-10T04:30:17.692Z,27.30
2022-08-10T04:32:49.212Z,27.40
2022-08-10T04:35:19.642Z,27.40
2022-08-10T04:37:50.142Z,27.40
2022-08-10T04:40:28.445Z,27.40
2022-08-10T04:43:03.394Z,27.40
2022-08-10T04:45:48.612Z,27.40
2022-08-10T04:48:42.147Z,27.50
2022-08-10T04:51:17.865Z,27.50
2022-08-10T04:54:05.184Z,27.50
2022-08-10T04:56:39.762Z,27.50
2022-08-10T04:59:09.975Z,27.50
2022-08-10T05:02:28.592Z,27.50
2022-08-10T05:04:35.660Z,27.60
2022-08-10T05:07:09.870Z,27.60
2022-08-10T05:10:05.021Z,27.60
2022-08-10T05:12:29.800Z,27.60
2022-08-10T05:14:58.130Z,27.60
2022-08-10T05:17:26.590Z,27.60
2022-08-10T05:20:04.456Z,27.60
2022-08-10T05:22:36.055Z,27.60
2022-08-10T05:25:08.312Z,27.60
2022-08-10T05:27:36.750Z,27.60
2022-08-10T05:30:07.994Z,27.70
2022-08-10T05:32:57.639Z,27.70
2022-08-10T05:35:26.280Z,27.80
2022-08-10T05:38:13.136Z,27.80
2022-08-10T05:40:46.621Z,27.80
2022-08-10T05:43:17.859Z,27.90
2022-08-10T05:46:16.614Z,27.90
2022-08-10T05:48:54.321Z,27.90
2022-08-10T05:51:25.683Z,28.00
2022-08-10T05:54:02.531Z,28.00
2022-08-10T05:56:53.809Z,28.00
2022-08-10T06:00:35.088Z,28.00
2022-08-10T06:02:30.827Z,28.10
2022-08-10T06:05:06.920Z,28.10
2022-08-10T06:07:38.497Z,28.10
2022-08-10T06:10:10.627Z,28.10
2022-08-10T06:12:55.334Z,28.20
2022-08-10T06:15:50.567Z,28.20
2022-08-10T06:18:16.062Z,28.20
2022-08-10T06:20:45.690Z,28.30
2022-08-10T06:23:15.231Z,28.30
2022-08-10T06:26:11.253Z,28.40
2022-08-10T06:28:36.190Z,28.40
2022-08-10T06:31:06.410Z,28.40
2022-08-10T06:33:37.444Z,28.40
2022-08-10T06:36:08.690Z,28.50
2022-08-10T06:38:40.260Z,28.40
2022-08-10T06:41:19.945Z,28.40
2022-08-10T06:43:57.069Z,28.50
2022-08-10T06:46:27.500Z,28.50
2022-08-10T06:49:00.730Z,28.60
2022-08-10T06:51:32.459Z,28.50
2022-08-10T06:54:04.110Z,28.50
2022-08-10T06:56:36.503Z,28.50
2022-08-10T06:59:13.252Z,28.60
2022-08-10T07:01:54.850Z,28.60
2022-08-10T07:04:32.983Z,28.60
2022-08-10T07:07:04.739Z,28.60
2022-08-10T07:09:36.330Z,28.60
2022-08-10T07:12:09.050Z,28.70
2022-08-10T07:14:46.169Z,28.80
2022-08-10T07:17:19.351Z,28.80
2022-08-10T07:19:52.445Z,28.80
2022-08-10T07:23:26.890Z,28.90
2022-08-10T07:25:15.669Z,29.00
2022-08-10T07:28:00.441Z,29.00
2022-08-10T07:30:36.240Z,29.10
2022-08-10T07:33:06.941Z,29.10
2022-08-10T07:35:42.615Z,29.10
2022-08-10T07:38:19.311Z,29.20
2022-08-10T07:40:50.341Z,29.30
2022-08-10T07:43:22.450Z,29.30
2022-08-10T07:45:53.455Z,29.40
2022-08-10T07:48:26.980Z,29.40
2022-08-10T07:51:00.284Z,29.40
2022-08-10T07:53:32.410Z,29.40
2022-08-10T07:56:16.977Z,29.50
2022-08-10T07:58:56.834Z,29.50
2022-08-10T08:01:32.326Z,29.60
2022-08-10T08:04:05.359Z,29.70
2022-08-10T08:06:41.416Z,29.80
2022-08-10T08:09:11.428Z,29.80
2022-08-10T08:11:42.102Z,29.90
2022-08-10T08:14:11.610Z,29.80
2022-08-10T08:16:44.620Z,29.80
2022-08-10T08:19:37.990Z,29.90
2022-08-10T08:24:07.954Z,29.90
2022-08-10T08:24:55.499Z,29.90
2022-08-10T08:27:25.290Z,30.00
2022-08-10T08:29:54.030Z,30.20
2022-08-10T08:32:26.871Z,30.30
2022-08-10T08:34:58.213Z,30.30
2022-08-10T08:38:33.454Z,30.40
2022-08-10T08:40:22.750Z,30.40
2022-08-10T08:43:22.481Z,30.50
2022-08-10T08:46:17.086Z,30.50
2022-08-10T08:50:07.436Z,30.50
2022-08-10T08:52:30.979Z,30.60
2022-08-10T08:56:04.768Z,30.70
2022-08-10T08:58:08.695Z,30.70
2022-08-10T09:00:44.076Z,30.70
2022-08-10T09:03:29.915Z,30.80
2022-08-10T09:06:12.937Z,31.00
2022-08-10T09:09:00.695Z,31.00
2022-08-10T09:11:41.565Z,31.00
2022-08-10T09:14:25.500Z,31.00
2022-08-10T09:17:01.178Z,31.10
2022-08-10T09:19:38.485Z,31.10
2022-08-10T09:22:18.109Z,31.20
2022-08-10T09:24:54.816Z,31.30
2022-08-10T09:27:27.016Z,31.30
2022-08-10T09:29:57.183Z,31.30
2022-08-10T09:36:14.734Z,31.40
2022-08-10T09:36:19.322Z,31.40
2022-08-10T09:38:34.166Z,31.40
2022-08-10T09:41:16.716Z,31.50
2022-08-10T09:43:56.376Z,31.50
2022-08-10T09:46:42.686Z,31.50
2022-08-10T09:49:25.848Z,31.50
2022-08-10T09:52:15.697Z,31.50
2022-08-10T09:55:07.665Z,31.60
2022-08-10T09:57:46.503Z,31.90
2022-08-10T10:00:20.019Z,32.10
2022-08-10T10:03:06.744Z,32.10
2022-08-10T10:05:51.340Z,31.90
2022-08-10T10:08:32.756Z,31.90
2022-08-10T10:11:17.065Z,31.90
2022-08-10T10:14:03.412Z,32.00
2022-08-10T10:16:49.156Z,32.10
2022-08-10T10:19:31.246Z,32.30
2022-08-10T10:22:14.506Z,32.30
2022-08-10T10:24:48.155Z,32.30
2022-08-10T10:27:27.685Z,32.50
2022-08-10T10:30:00.358Z,32.70
2022-08-10T10:32:39.897Z,32.60
2022-08-10T10:35:17.095Z,32.70
2022-08-10T10:38:01.065Z,32.70
2022-08-10T10:40:38.071Z,32.70
2022-08-10T10:43:22.046Z,32.80
2022-08-10T10:46:04.687Z,32.70
2022-08-10T10:48:42.005Z,32.80
2022-08-10T10:51:17.197Z,33.10
2022-08-10T10:54:00.595Z,33.40
2022-08-10T10:56:36.535Z,33.20
2022-08-10T10:59:53.784Z,33.10
2022-08-10T11:02:17.995Z,32.80
2022-08-10T11:04:56.680Z,32.70
2022-08-10T11:07:33.755Z,33.10
2022-08-10T11:10:16.528Z,33.30
2022-08-10T11:14:24.951Z,33.50
2022-08-10T11:16:07.084Z,34.00
2022-08-10T11:18:55.754Z,33.90
2022-08-10T11:21:44.235Z,33.90
2022-08-10T11:24:49.018Z,34.10
2022-08-10T11:27:22.066Z,34.30
2022-08-10T11:30:01.316Z,34.40
2022-08-10T11:32:43.336Z,34.60
2022-08-10T11:35:22.885Z,34.60
2022-08-10T11:38:32.267Z,34.40
2022-08-10T11:40:57.885Z,34.50
2022-08-10T11:43:47.034Z,34.70
2022-08-10T11:46:28.473Z,34.70
2022-08-10T11:49:06.580Z,34.90
2022-08-10T11:51:44.167Z,35.20
2022-08-10T11:54:25.397Z,35.30
2022-08-10T11:57:01.949Z,35.20
2022-08-10T11:59:58.590Z,35.20
2022-08-10T12:02:33.302Z,34.80
2022-08-10T12:05:16.886Z,34.90
2022-08-10T12:10:04.461Z,34.90
2022-08-10T12:10:40.855Z,34.80
2022-08-10T12:13:13.045Z,35.00
2022-08-10T12:15:55.439Z,35.20
2022-08-10T12:18:29.576Z,35.20
2022-08-10T12:21:03.395Z,35.20
2022-08-10T12:23:41.146Z,35.10
2022-08-10T12:26:14.081Z,35.10
2022-08-10T12:28:50.573Z,35.40
2022-08-10T12:31:25.615Z,35.60
2022-08-10T12:34:08.627Z,35.40
2022-08-10T12:36:42.468Z,35.70
2022-08-10T12:39:18.845Z,35.70
2022-08-10T12:41:56.154Z,35.70
2022-08-10T12:44:41.983Z,35.70
2022-08-10T12:47:22.936Z,35.40
2022-08-10T12:50:31.280Z,35.50
2022-08-10T12:52:57.585Z,35.70
2022-08-10T12:55:29.096Z,35.70
2022-08-10T12:57:59.317Z,36.00
2022-08-10T13:00:31.302Z,36.20
2022-08-10T13:03:02.096Z,36.30
2022-08-10T13:06:02.605Z,36.30
2022-08-10T13:08:44.744Z,36.30
2022-08-10T13:12:34.129Z,36.40
2022-08-10T13:14:10.797Z,36.40
2022-08-10T13:16:41.507Z,36.30
2022-08-10T13:19:13.487Z,36.00
2022-08-10T13:21:43.417Z,35.60
2022-08-10T13:24:16.946Z,36.00
2022-08-10T13:27:24.665Z,36.30
2022-08-10T13:29:44.177Z,36.60
2022-08-10T13:32:20.077Z,36.60
2022-08-10T13:34:52.772Z,36.70
2022-08-10T13:37:24.727Z,36.90
2022-08-10T13:40:00.407Z,37.20
2022-08-10T13:42:36.307Z,37.40
2022-08-10T13:45:11.191Z,37.40
2022-08-10T13:47:49.130Z,37.60
2022-08-10T13:50:33.601Z,37.90
2022-08-10T13:53:11.578Z,37.40
2022-08-10T13:55:54.179Z,37.20
2022-08-10T13:58:33.883Z,37.50
2022-08-10T14:01:10.910Z,37.80
2022-08-10T14:03:43.767Z,38.10
2022-08-10T14:06:13.960Z,38.50
2022-08-10T14:08:49.237Z,38.60
2022-08-10T14:11:21.107Z,38.50
2022-08-10T14:13:57.199Z,38.10
2022-08-10T14:16:27.236Z,38.40
2022-08-10T14:18:58.520Z,38.50
2022-08-10T14:21:27.995Z,38.60
2022-08-10T14:23:56.368Z,38.20
2022-08-10T14:26:31.382Z,38.30
2022-08-10T14:29:08.959Z,38.70
2022-08-10T14:32:00.857Z,39.10
2022-08-10T14:34:50.585Z,39.20
2022-08-10T14:37:38.244Z,39.50
2022-08-10T14:40:12.147Z,39.70
2022-08-10T14:42:48.262Z,40.10
2022-08-10T14:45:22.418Z,40.60
2022-08-10T14:47:59.639Z,40.60
2022-08-10T14:50:33.568Z,40.60
2022-08-10T14:53:09.271Z,41.00
2022-08-10T14:55:58.979Z,41.40
2022-08-10T14:58:33.596Z,41.40
2022-08-10T15:01:03.626Z,41.00
2022-08-10T15:04:01.498Z,41.00
2022-08-10T15:06:30.767Z,41.30
2022-08-10T15:09:19.522Z,41.30
2022-08-10T15:12:15.462Z,41.40
2022-08-10T15:14:44.898Z,41.50
2022-08-10T15:17:17.467Z,41.80
2022-08-10T15:20:04.559Z,42.00
2022-08-10T15:22:40.588Z,42.20
2022-08-10T15:25:18.022Z,42.40
2022-08-10T15:27:54.700Z,42.50
2022-08-10T15:30:31.737Z,42.20
2022-08-10T15:34:02.864Z,42.20
2022-08-10T15:36:38.028Z,42.20
2022-08-10T15:39:16.518Z,42.30
2022-08-10T15:42:01.171Z,42.30
2022-08-10T15:44:38.899Z,42.50
2022-08-10T15:47:15.114Z,42.60
2022-08-10T15:49:52.497Z,42.50
2022-08-10T15:52:39.062Z,42.40
2022-08-10T15:55:41.283Z,42.20
2022-08-10T15:58:16.357Z,42.50
2022-08-10T16:00:51.084Z,42.50
2022-08-10T16:03:33.942Z,42.30
2022-08-10T16:06:05.696Z,41.00
2022-08-10T16:08:56.703Z,40.60
2022-08-10T16:11:37.775Z,40.10
2022-08-10T16:14:15.039Z,39.40
2022-08-10T16:16:49.013Z,38.50
2022-08-10T16:19:25.075Z,38.70
2022-08-10T16:22:33.804Z,38.60
2022-08-10T16:24:52.188Z,38.00
2022-08-10T16:27:25.008Z,38.90
2022-08-10T16:29:59.845Z,38.30
2022-08-10T16:32:31.145Z,37.50
2022-08-10T16:35:08.165Z,37.20
2022-08-10T16:37:57.388Z,36.90
2022-08-10T16:40:29.859Z,36.50
2022-08-10T16:43:01.855Z,36.20
2022-08-10T16:45:35.184Z,36.00
2022-08-10T16:48:06.239Z,35.80
2022-08-10T16:50:42.029Z,35.60
2022-08-10T16:53:14.958Z,35.40
2022-08-10T16:55:50.465Z,35.30
2022-08-10T16:58:22.724Z,35.20
2022-08-10T17:00:52.347Z,35.20
2022-08-10T17:04:08.195Z,35.10
2022-08-10T17:06:24.340Z,35.00
2022-08-10T17:08:56.284Z,35.10
2022-08-10T17:11:30.588Z,35.10
2022-08-10T17:14:02.044Z,35.00
2022-08-10T17:16:35.483Z,34.90
2022-08-10T17:19:09.179Z,34.70
2022-08-10T17:21:51.676Z,34.60
2022-08-10T17:24:24.873Z,34.50
2022-08-10T17:26:58.843Z,34.30
2022-08-10T17:29:57.254Z,34.20
2022-08-10T17:32:28.309Z,34.20
2022-08-10T17:34:59.984Z,34.20
2022-08-10T17:37:34.391Z,34.20
2022-08-10T17:40:07.183Z,34.10
2022-08-10T17:42:36.885Z,34.00
2022-08-10T17:45:06.821Z,33.90
2022-08-10T17:47:36.322Z,33.80
2022-08-10T17:50:06.919Z,33.70
2022-08-10T17:52:38.024Z,33.70
2022-08-10T17:55:09.120Z,33.70
2022-08-10T17:57:39.990Z,33.60
2022-08-10T18:00:15.354Z,33.50
2022-08-10T18:02:46.895Z,33.50
2022-08-10T18:05:15.996Z,33.50
2022-08-10T18:07:51.016Z,33.40
2022-08-10T18:10:22.469Z,33.30
2022-08-10T18:12:54.311Z,33.30
2022-08-10T18:15:26.532Z,33.20
2022-08-10T18:18:00.040Z,33.20
2022-08-10T18:20:35.589Z,33.10
2022-08-10T18:23:07.589Z,33.00
2022-08-10T18:25:39.073Z,32.90
2022-08-10T18:28:12.435Z,32.90
2022-08-10T18:30:48.522Z,32.80
2022-08-10T18:33:19.454Z,32.80
2022-08-10T18:35:50.348Z,32.70
2022-08-10T18:38:22.063Z,32.60
2022-08-10T18:40:58.354Z,32.50
2022-08-10T18:44:09.840Z,32.50
2022-08-10T18:46:29.514Z,32.30
2022-08-10T18:49:04.754Z,32.30
2022-08-10T18:51:46.853Z,32.20
2022-08-10T18:54:38.850Z,32.20
2022-08-10T18:57:29.005Z,32.00
2022-08-10T19:00:08.002Z,32.00
2022-08-10T19:03:14.189Z,32.10
2022-08-10T19:06:10.319Z,32.00
2022-08-10T19:09:46.135Z,32.00
2022-08-10T19:12:29.849Z,32.00
2022-08-10T19:15:10.794Z,31.90
2022-08-10T19:18:03.500Z,31.90
2022-08-10T19:20:40.076Z,31.80
2022-08-10T19:23:27.513Z,31.80
2022-08-10T19:26:42.781Z,31.70
2022-08-10T19:30:09.294Z,31.70
2022-08-10T19:32:25.741Z,31.70
2022-08-10T19:35:03.745Z,31.60
2022-08-10T19:37:42.110Z,31.60
2022-08-10T19:40:44.083Z,31.60
2022-08-10T19:43:59.520Z,31.60
2022-08-10T19:46:27.929Z,31.50
2022-08-10T19:49:03.534Z,31.50
2022-08-10T19:51:48.558Z,31.40
2022-08-10T19:54:34.570Z,31.40
2022-08-10T19:57:14.699Z,31.40
2022-08-10T20:00:16.088Z,31.40
2022-08-10T20:03:00.270Z,31.30
2022-08-10T20:05:36.330Z,31.20
2022-08-10T20:08:15.429Z,31.20
2022-08-10T20:10:55.584Z,31.20
2022-08-10T20:13:34.063Z,31.10
2022-08-10T20:16:08.271Z,31.10
2022-08-10T20:18:43.131Z,31.10
2022-08-10T20:21:15.544Z,31.00
2022-08-10T20:23:55.158Z,30.90
2022-08-10T20:26:28.584Z,30.90
2022-08-10T20:29:07.611Z,30.90
2022-08-10T20:31:42.031Z,30.80
2022-08-10T20:34:18.874Z,30.80
2022-08-10T20:37:06.756Z,30.90
2022-08-10T20:39:57.327Z,30.90
2022-08-10T20:42:34.292Z,30.70
2022-08-10T20:45:21.605Z,30.70
2022-08-10T20:47:57.092Z,30.70
2022-08-10T20:50:34.326Z,30.60
2022-08-10T20:53:10.057Z,30.50
2022-08-10T20:55:53.522Z,30.40
2022-08-10T20:58:57.627Z,30.40
2022-08-10T21:02:11.257Z,30.40
2022-08-10T21:04:47.767Z,30.40
2022-08-10T21:08:01.199Z,30.40
2022-08-10T21:10:52.486Z,30.40
2022-08-10T21:13:44.967Z,30.30
2022-08-10T21:16:31.623Z,30.30
2022-08-10T21:19:22.718Z,30.20
2022-08-10T21:22:09.036Z,30.10
2022-08-10T21:24:49.058Z,30.10
2022-08-10T21:27:47.262Z,30.00
2022-08-10T21:30:20.659Z,30.00
2022-08-10T21:32:57.237Z,29.90
2022-08-10T21:35:36.761Z,30.00
2022-08-10T21:38:19.568Z,29.90
2022-08-10T21:44:53.119Z,29.70
2022-08-10T21:48:06.828Z,29.70
2022-08-10T21:51:16.577Z,29.70
2022-08-10T21:54:18.827Z,29.60
2022-08-10T21:57:16.138Z,29.50
2022-08-10T22:00:11.129Z,29.50
2022-08-10T22:03:00.187Z,29.40
2022-08-10T22:05:51.603Z,29.40
2022-08-10T22:08:44.857Z,29.40
2022-08-10T22:11:38.429Z,29.30
2022-08-10T22:14:33.505Z,29.30
2022-08-10T22:18:03.142Z,29.30
2022-08-10T22:20:41.177Z,29.30
2022-08-10T22:23:42.058Z,29.30
2022-08-10T22:26:38.847Z,29.20
2022-08-10T22:29:42.874Z,29.20
2022-08-10T22:31:27.957Z,29.80
2022-08-10T22:32:42.438Z,29.20
2022-08-10T22:35:55.248Z,29.20
2022-08-10T22:38:59.310Z,29.30
2022-08-10T22:41:57.308Z,29.20
2022-08-10T22:44:48.601Z,29.10
2022-08-10T22:47:40.112Z,29.00
2022-08-10T22:50:11.167Z,29.00
2022-08-10T22:53:01.767Z,28.90
2022-08-10T22:55:55.896Z,28.90
2022-08-10T22:58:43.029Z,28.90
2022-08-10T23:01:36.337Z,28.80
2022-08-10T23:04:11.626Z,28.80
2022-08-10T23:06:41.199Z,28.70
2022-08-10T23:09:11.927Z,28.70
2022-08-10T23:11:43.537Z,28.70
2022-08-10T23:14:13.328Z,28.60
2022-08-10T23:17:04.978Z,28.50
2022-08-10T23:19:36.646Z,28.50
2022-08-10T23:22:09.527Z,28.50
2022-08-10T23:24:43.906Z,28.50
2022-08-10T23:27:37.573Z,28.50
2022-08-10T23:30:10.260Z,28.50
2022-08-10T23:32:44.769Z,28.50
2022-08-10T23:36:29.498Z,28.40
2022-08-10T23:38:05.450Z,28.40
2022-08-10T23:40:35.372Z,28.40
2022-08-10T23:43:05.422Z,28.40
2022-08-10T23:45:53.232Z,28.40
2022-08-10T23:48:28.042Z,28.40
2022-08-10T23:51:04.309Z,28.40
2022-08-10T23:53:48.406Z,28.30
2022-08-10T23:56:20.465Z,28.30
2022-08-10T23:58:51.276Z,28.20
